sensor_id;sensor_type;location;lat;lon;timestamp;P1;durP1;ratioP1;P2;durP2;ratioP2
16031;SDS011;8120;48.308;8.914;2023-03-01T00:01:46;20.07;;;11.00;;
16031;SDS011;8120;48.308;8.914;2023-03-01T00:04:14;18.23;;;10.57;;
16031;SDS011;8120;48.308;8.914;2023-03-01T00:06:42;19.70;;;10.30;;
16031;SDS011;8120;48.308;8.914;2023-03-01T00:09:12;18.53;;;11.17;;
16031;SDS011;8120;48.308;8.914;2023-03-01T00:11:40;19.80;;;10.37;;
16031;SDS011;8120;48.308;8.914;2023-03-01T00:14:09;21.87;;;10.57;;
16031;SDS011;8120;48.308;8.914;2023-03-01T00:16:38;18.77;;;11.43;;
16031;SDS011;8120;48.308;8.914;2023-03-01T00:19:09;21.93;;;12.30;;
16031;SDS011;8120;48.308;8.914;2023-03-01T00:21:39;22.57;;;12.20;;
16031;SDS011;8120;48.308;8.914;2023-03-01T00:26:57;19.77;;;11.63;;
16031;SDS011;8120;48.308;8.914;2023-03-01T00:29:25;23.63;;;11.87;;
16031;SDS011;8120;48.308;8.914;2023-03-01T00:31:53;17.33;;;10.27;;
16031;SDS011;8120;48.308;8.914;2023-03-01T00:34:22;18.80;;;11.20;;
16031;SDS011;8120;48.308;8.914;2023-03-01T00:36:50;21.73;;;12.37;;
16031;SDS011;8120;48.308;8.914;2023-03-01T00:39:18;18.50;;;12.37;;
16031;SDS011;8120;48.308;8.914;2023-03-01T00:41:45;21.93;;;12.33;;
16031;SDS011;8120;48.308;8.914;2023-03-01T00:44:13;20.23;;;12.17;;
16031;SDS011;8120;48.308;8.914;2023-03-01T00:46:41;18.50;;;11.43;;
16031;SDS011;8120;48.308;8.914;2023-03-01T00:49:09;32.73;;;17.37;;
16031;SDS011;8120;48.308;8.914;2023-03-01T00:51:40;39.23;;;22.53;;
16031;SDS011;8120;48.308;8.914;2023-03-01T00:54:08;29.03;;;16.37;;
16031;SDS011;8120;48.308;8.914;2023-03-01T00:56:36;27.67;;;15.53;;
16031;SDS011;8120;48.308;8.914;2023-03-01T00:59:04;25.67;;;15.10;;
16031;SDS011;8120;48.308;8.914;2023-03-01T01:01:32;19.07;;;11.70;;
16031;SDS011;8120;48.308;8.914;2023-03-01T01:04:01;18.77;;;10.87;;
16031;SDS011;8120;48.308;8.914;2023-03-01T01:06:31;24.03;;;12.43;;
16031;SDS011;8120;48.308;8.914;2023-03-01T01:09:02;21.27;;;12.07;;
16031;SDS011;8120;48.308;8.914;2023-03-01T01:11:30;18.40;;;12.13;;
16031;SDS011;8120;48.308;8.914;2023-03-01T01:14:02;20.50;;;11.60;;
16031;SDS011;8120;48.308;8.914;2023-03-01T01:16:30;19.87;;;11.90;;
16031;SDS011;8120;48.308;8.914;2023-03-01T01:18:58;17.57;;;11.07;;
16031;SDS011;8120;48.308;8.914;2023-03-01T01:21:26;18.47;;;10.67;;
16031;SDS011;8120;48.308;8.914;2023-03-01T01:24:18;18.73;;;12.50;;
16031;SDS011;8120;48.308;8.914;2023-03-01T01:26:46;21.33;;;12.33;;
16031;SDS011;8120;48.308;8.914;2023-03-01T01:29:14;23.00;;;12.97;;
16031;SDS011;8120;48.308;8.914;2023-03-01T01:31:42;21.47;;;13.90;;
16031;SDS011;8120;48.308;8.914;2023-03-01T01:34:12;22.80;;;12.57;;
16031;SDS011;8120;48.308;8.914;2023-03-01T01:36:42;18.07;;;11.63;;
16031;SDS011;8120;48.308;8.914;2023-03-01T01:39:10;19.50;;;11.83;;
16031;SDS011;8120;48.308;8.914;2023-03-01T01:41:42;19.20;;;12.57;;
16031;SDS011;8120;48.308;8.914;2023-03-01T01:44:15;21.17;;;12.97;;
16031;SDS011;8120;48.308;8.914;2023-03-01T01:46:45;23.03;;;13.13;;
16031;SDS011;8120;48.308;8.914;2023-03-01T01:49:17;23.50;;;12.50;;
16031;SDS011;8120;48.308;8.914;2023-03-01T01:51:52;20.17;;;13.60;;
16031;SDS011;8120;48.308;8.914;2023-03-01T01:54:25;21.10;;;13.63;;
16031;SDS011;8120;48.308;8.914;2023-03-01T01:56:59;22.77;;;13.77;;
16031;SDS011;8120;48.308;8.914;2023-03-01T01:59:30;22.70;;;15.03;;
16031;SDS011;8120;48.308;8.914;2023-03-01T02:02:00;23.63;;;14.43;;
16031;SDS011;8120;48.308;8.914;2023-03-01T02:04:31;24.40;;;14.50;;
16031;SDS011;8120;48.308;8.914;2023-03-01T02:07:00;26.43;;;14.70;;
16031;SDS011;8120;48.308;8.914;2023-03-01T02:09:32;26.07;;;15.20;;
16031;SDS011;8120;48.308;8.914;2023-03-01T02:12:03;25.23;;;15.10;;
16031;SDS011;8120;48.308;8.914;2023-03-01T02:14:31;23.87;;;14.70;;
16031;SDS011;8120;48.308;8.914;2023-03-01T02:16:59;28.37;;;15.80;;
16031;SDS011;8120;48.308;8.914;2023-03-01T02:19:31;25.20;;;14.50;;
16031;SDS011;8120;48.308;8.914;2023-03-01T02:22:10;24.60;;;13.70;;
16031;SDS011;8120;48.308;8.914;2023-03-01T02:24:49;25.67;;;15.23;;
16031;SDS011;8120;48.308;8.914;2023-03-01T02:27:30;22.73;;;14.27;;
16031;SDS011;8120;48.308;8.914;2023-03-01T02:30:06;19.97;;;13.17;;
16031;SDS011;8120;48.308;8.914;2023-03-01T02:32:38;20.07;;;12.77;;
16031;SDS011;8120;48.308;8.914;2023-03-01T02:35:08;26.30;;;14.87;;
16031;SDS011;8120;48.308;8.914;2023-03-01T02:37:37;21.57;;;13.37;;
16031;SDS011;8120;48.308;8.914;2023-03-01T02:40:08;20.80;;;13.10;;
16031;SDS011;8120;48.308;8.914;2023-03-01T02:42:40;22.83;;;13.50;;
16031;SDS011;8120;48.308;8.914;2023-03-01T02:45:15;23.37;;;13.40;;
16031;SDS011;8120;48.308;8.914;2023-03-01T02:47:43;22.27;;;13.30;;
16031;SDS011;8120;48.308;8.914;2023-03-01T02:50:15;21.23;;;13.77;;
16031;SDS011;8120;48.308;8.914;2023-03-01T02:52:53;22.97;;;13.57;;
16031;SDS011;8120;48.308;8.914;2023-03-01T02:55:24;26.03;;;14.47;;
16031;SDS011;8120;48.308;8.914;2023-03-01T02:57:53;24.97;;;13.60;;
16031;SDS011;8120;48.308;8.914;2023-03-01T03:00:24;22.80;;;13.30;;
16031;SDS011;8120;48.308;8.914;2023-03-01T03:02:55;21.90;;;13.37;;
16031;SDS011;8120;48.308;8.914;2023-03-01T03:05:24;20.20;;;12.50;;
16031;SDS011;8120;48.308;8.914;2023-03-01T03:07:57;27.00;;;14.73;;
16031;SDS011;8120;48.308;8.914;2023-03-01T03:10:26;18.20;;;11.73;;
16031;SDS011;8120;48.308;8.914;2023-03-01T03:12:56;17.97;;;12.23;;
16031;SDS011;8120;48.308;8.914;2023-03-01T03:15:27;25.27;;;15.40;;
16031;SDS011;8120;48.308;8.914;2023-03-01T03:17:55;28.23;;;15.50;;
16031;SDS011;8120;48.308;8.914;2023-03-01T03:20:32;19.40;;;12.37;;
16031;SDS011;8120;48.308;8.914;2023-03-01T03:23:00;22.70;;;15.50;;
16031;SDS011;8120;48.308;8.914;2023-03-01T03:25:28;20.63;;;13.33;;
16031;SDS011;8120;48.308;8.914;2023-03-01T03:27:57;21.47;;;14.57;;
16031;SDS011;8120;48.308;8.914;2023-03-01T03:30:27;21.37;;;13.70;;
16031;SDS011;8120;48.308;8.914;2023-03-01T03:32:57;26.00;;;14.27;;
16031;SDS011;8120;48.308;8.914;2023-03-01T03:35:27;21.17;;;12.53;;
16031;SDS011;8120;48.308;8.914;2023-03-01T03:37:57;24.57;;;12.90;;
16031;SDS011;8120;48.308;8.914;2023-03-01T03:40:31;20.70;;;12.63;;
16031;SDS011;8120;48.308;8.914;2023-03-01T03:43:01;21.37;;;12.50;;
16031;SDS011;8120;48.308;8.914;2023-03-01T03:45:30;22.13;;;12.67;;
16031;SDS011;8120;48.308;8.914;2023-03-01T03:47:59;28.00;;;14.73;;
16031;SDS011;8120;48.308;8.914;2023-03-01T03:50:27;25.33;;;12.37;;
16031;SDS011;8120;48.308;8.914;2023-03-01T03:52:55;17.63;;;11.30;;
16031;SDS011;8120;48.308;8.914;2023-03-01T03:55:23;18.20;;;11.20;;
16031;SDS011;8120;48.308;8.914;2023-03-01T03:57:56;23.37;;;13.67;;
16031;SDS011;8120;48.308;8.914;2023-03-01T04:00:28;21.60;;;13.17;;
16031;SDS011;8120;48.308;8.914;2023-03-01T04:02:57;25.77;;;14.27;;
16031;SDS011;8120;48.308;8.914;2023-03-01T04:05:26;22.30;;;13.13;;
16031;SDS011;8120;48.308;8.914;2023-03-01T04:07:54;21.13;;;12.30;;
16031;SDS011;8120;48.308;8.914;2023-03-01T04:10:28;27.50;;;14.73;;
16031;SDS011;8120;48.308;8.914;2023-03-01T04:12:57;25.07;;;13.90;;
16031;SDS011;8120;48.308;8.914;2023-03-01T04:15:26;18.83;;;11.33;;
16031;SDS011;8120;48.308;8.914;2023-03-01T04:17:54;19.50;;;12.97;;
16031;SDS011;8120;48.308;8.914;2023-03-01T04:20:25;18.87;;;11.63;;
16031;SDS011;8120;48.308;8.914;2023-03-01T04:22:57;20.03;;;12.07;;
16031;SDS011;8120;48.308;8.914;2023-03-01T04:25:37;21.30;;;13.57;;
16031;SDS011;8120;48.308;8.914;2023-03-01T04:28:06;22.90;;;13.67;;
16031;SDS011;8120;48.308;8.914;2023-03-01T04:30:34;19.23;;;11.10;;
16031;SDS011;8120;48.308;8.914;2023-03-01T04:33:05;21.30;;;12.30;;
16031;SDS011;8120;48.308;8.914;2023-03-01T04:35:35;20.23;;;13.07;;
16031;SDS011;8120;48.308;8.914;2023-03-01T04:38:04;25.37;;;14.30;;
16031;SDS011;8120;48.308;8.914;2023-03-01T04:40:32;22.30;;;13.77;;
16031;SDS011;8120;48.308;8.914;2023-03-01T04:43:00;24.60;;;13.63;;
16031;SDS011;8120;48.308;8.914;2023-03-01T04:45:28;21.30;;;12.07;;
16031;SDS011;8120;48.308;8.914;2023-03-01T04:47:56;23.67;;;13.27;;
16031;SDS011;8120;48.308;8.914;2023-03-01T04:50:26;24.63;;;13.90;;
16031;SDS011;8120;48.308;8.914;2023-03-01T04:52:53;21.30;;;11.37;;
16031;SDS011;8120;48.308;8.914;2023-03-01T04:55:25;21.53;;;12.97;;
16031;SDS011;8120;48.308;8.914;2023-03-01T04:57:53;23.63;;;13.77;;
16031;SDS011;8120;48.308;8.914;2023-03-01T05:00:21;21.20;;;12.67;;
16031;SDS011;8120;48.308;8.914;2023-03-01T05:02:50;20.53;;;13.50;;
16031;SDS011;8120;48.308;8.914;2023-03-01T05:05:23;22.17;;;12.53;;
16031;SDS011;8120;48.308;8.914;2023-03-01T05:07:55;22.47;;;13.27;;
16031;SDS011;8120;48.308;8.914;2023-03-01T05:10:25;22.43;;;14.03;;
16031;SDS011;8120;48.308;8.914;2023-03-01T05:12:55;25.73;;;14.83;;
16031;SDS011;8120;48.308;8.914;2023-03-01T05:15:24;26.40;;;14.67;;
16031;SDS011;8120;48.308;8.914;2023-03-01T05:17:53;24.33;;;14.77;;
16031;SDS011;8120;48.308;8.914;2023-03-01T05:20:22;24.10;;;14.13;;
16031;SDS011;8120;48.308;8.914;2023-03-01T05:22:51;21.00;;;14.10;;
16031;SDS011;8120;48.308;8.914;2023-03-01T05:25:24;24.17;;;14.77;;
16031;SDS011;8120;48.308;8.914;2023-03-01T05:27:53;23.97;;;15.03;;
16031;SDS011;8120;48.308;8.914;2023-03-01T05:30:21;23.07;;;14.37;;
16031;SDS011;8120;48.308;8.914;2023-03-01T05:32:49;23.57;;;14.83;;
16031;SDS011;8120;48.308;8.914;2023-03-01T05:35:21;21.27;;;13.73;;
16031;SDS011;8120;48.308;8.914;2023-03-01T05:37:49;20.40;;;12.00;;
16031;SDS011;8120;48.308;8.914;2023-03-01T05:40:19;22.23;;;14.37;;
16031;SDS011;8120;48.308;8.914;2023-03-01T05:42:51;24.03;;;14.03;;
16031;SDS011;8120;48.308;8.914;2023-03-01T05:45:20;26.50;;;14.47;;
16031;SDS011;8120;48.308;8.914;2023-03-01T05:47:49;22.77;;;14.23;;
16031;SDS011;8120;48.308;8.914;2023-03-01T05:50:18;25.03;;;14.47;;
16031;SDS011;8120;48.308;8.914;2023-03-01T05:52:49;26.50;;;15.03;;
16031;SDS011;8120;48.308;8.914;2023-03-01T05:55:20;21.23;;;14.30;;
16031;SDS011;8120;48.308;8.914;2023-03-01T05:57:48;20.87;;;11.97;;
16031;SDS011;8120;48.308;8.914;2023-03-01T06:00:18;24.70;;;14.90;;
16031;SDS011;8120;48.308;8.914;2023-03-01T06:02:48;21.43;;;13.30;;
16031;SDS011;8120;48.308;8.914;2023-03-01T06:05:18;22.63;;;12.33;;
16031;SDS011;8120;48.308;8.914;2023-03-01T06:07:46;28.80;;;13.83;;
16031;SDS011;8120;48.308;8.914;2023-03-01T06:10:14;24.67;;;15.07;;
16031;SDS011;8120;48.308;8.914;2023-03-01T06:12:44;23.13;;;13.33;;
16031;SDS011;8120;48.308;8.914;2023-03-01T06:15:12;24.17;;;14.37;;
16031;SDS011;8120;48.308;8.914;2023-03-01T06:17:41;20.90;;;13.77;;
16031;SDS011;8120;48.308;8.914;2023-03-01T06:20:13;24.77;;;10.87;;
16031;SDS011;8120;48.308;8.914;2023-03-01T06:22:42;27.23;;;13.10;;
16031;SDS011;8120;48.308;8.914;2023-03-01T06:25:10;22.80;;;13.27;;
16031;SDS011;8120;48.308;8.914;2023-03-01T06:27:39;24.03;;;14.40;;
16031;SDS011;8120;48.308;8.914;2023-03-01T06:30:10;29.30;;;15.87;;
16031;SDS011;8120;48.308;8.914;2023-03-01T06:32:40;27.10;;;15.17;;
16031;SDS011;8120;48.308;8.914;2023-03-01T06:35:09;25.17;;;15.30;;
16031;SDS011;8120;48.308;8.914;2023-03-01T06:37:37;22.53;;;13.63;;
16031;SDS011;8120;48.308;8.914;2023-03-01T06:40:06;23.07;;;12.73;;
16031;SDS011;8120;48.308;8.914;2023-03-01T06:42:38;23.83;;;13.80;;
16031;SDS011;8120;48.308;8.914;2023-03-01T06:45:07;26.00;;;13.83;;
16031;SDS011;8120;48.308;8.914;2023-03-01T06:47:37;25.43;;;14.20;;
16031;SDS011;8120;48.308;8.914;2023-03-01T06:50:05;26.27;;;15.07;;
16031;SDS011;8120;48.308;8.914;2023-03-01T06:52:34;23.07;;;14.43;;
16031;SDS011;8120;48.308;8.914;2023-03-01T06:55:02;27.37;;;14.30;;
16031;SDS011;8120;48.308;8.914;2023-03-01T06:57:31;26.00;;;16.30;;
16031;SDS011;8120;48.308;8.914;2023-03-01T06:59:59;24.83;;;14.93;;
16031;SDS011;8120;48.308;8.914;2023-03-01T07:02:28;27.13;;;15.93;;
16031;SDS011;8120;48.308;8.914;2023-03-01T07:04:56;17.57;;;11.67;;
16031;SDS011;8120;48.308;8.914;2023-03-01T07:07:24;24.50;;;14.57;;
16031;SDS011;8120;48.308;8.914;2023-03-01T07:09:51;28.33;;;14.83;;
16031;SDS011;8120;48.308;8.914;2023-03-01T07:12:20;25.57;;;14.33;;
16031;SDS011;8120;48.308;8.914;2023-03-01T07:14:48;25.10;;;14.77;;
16031;SDS011;8120;48.308;8.914;2023-03-01T07:17:15;23.33;;;14.67;;
16031;SDS011;8120;48.308;8.914;2023-03-01T07:19:46;27.27;;;14.23;;
16031;SDS011;8120;48.308;8.914;2023-03-01T07:22:13;24.27;;;14.10;;
16031;SDS011;8120;48.308;8.914;2023-03-01T07:24:41;25.50;;;14.20;;
16031;SDS011;8120;48.308;8.914;2023-03-01T07:27:09;18.07;;;11.70;;
16031;SDS011;8120;48.308;8.914;2023-03-01T07:29:37;17.37;;;10.17;;
16031;SDS011;8120;48.308;8.914;2023-03-01T07:32:05;22.97;;;13.60;;
16031;SDS011;8120;48.308;8.914;2023-03-01T07:34:33;18.13;;;11.23;;
16031;SDS011;8120;48.308;8.914;2023-03-01T07:37:03;28.57;;;13.83;;
16031;SDS011;8120;48.308;8.914;2023-03-01T07:39:30;20.33;;;12.73;;
16031;SDS011;8120;48.308;8.914;2023-03-01T07:41:58;23.30;;;14.03;;
16031;SDS011;8120;48.308;8.914;2023-03-01T07:44:26;25.60;;;15.47;;
16031;SDS011;8120;48.308;8.914;2023-03-01T07:46:54;29.27;;;16.77;;
16031;SDS011;8120;48.308;8.914;2023-03-01T07:49:24;26.60;;;14.63;;
16031;SDS011;8120;48.308;8.914;2023-03-01T07:51:53;23.43;;;14.37;;
16031;SDS011;8120;48.308;8.914;2023-03-01T07:54:22;22.00;;;13.77;;
16031;SDS011;8120;48.308;8.914;2023-03-01T07:56:50;26.87;;;15.60;;
16031;SDS011;8120;48.308;8.914;2023-03-01T07:59:18;29.07;;;15.20;;
16031;SDS011;8120;48.308;8.914;2023-03-01T08:01:46;28.00;;;16.00;;
16031;SDS011;8120;48.308;8.914;2023-03-01T08:04:13;28.23;;;14.70;;
16031;SDS011;8120;48.308;8.914;2023-03-01T08:06:41;22.03;;;15.17;;
16031;SDS011;8120;48.308;8.914;2023-03-01T08:09:09;22.33;;;13.63;;
16031;SDS011;8120;48.308;8.914;2023-03-01T08:11:38;23.53;;;13.73;;
16031;SDS011;8120;48.308;8.914;2023-03-01T08:14:06;26.50;;;13.80;;
16031;SDS011;8120;48.308;8.914;2023-03-01T08:16:34;24.17;;;14.30;;
16031;SDS011;8120;48.308;8.914;2023-03-01T08:19:03;22.77;;;14.50;;
16031;SDS011;8120;48.308;8.914;2023-03-01T08:21:32;26.37;;;15.63;;
16031;SDS011;8120;48.308;8.914;2023-03-01T08:24:00;28.77;;;16.23;;
16031;SDS011;8120;48.308;8.914;2023-03-01T08:26:29;24.03;;;15.10;;
16031;SDS011;8120;48.308;8.914;2023-03-01T08:28:59;25.80;;;13.50;;
16031;SDS011;8120;48.308;8.914;2023-03-01T08:31:28;22.83;;;14.03;;
16031;SDS011;8120;48.308;8.914;2023-03-01T08:33:59;26.00;;;15.33;;
16031;SDS011;8120;48.308;8.914;2023-03-01T08:36:29;23.70;;;14.80;;
16031;SDS011;8120;48.308;8.914;2023-03-01T08:38:59;22.27;;;13.57;;
16031;SDS011;8120;48.308;8.914;2023-03-01T08:41:27;24.63;;;14.30;;
16031;SDS011;8120;48.308;8.914;2023-03-01T08:43:54;25.43;;;13.87;;
16031;SDS011;8120;48.308;8.914;2023-03-01T08:46:27;25.67;;;14.87;;
16031;SDS011;8120;48.308;8.914;2023-03-01T08:48:56;23.63;;;13.40;;
16031;SDS011;8120;48.308;8.914;2023-03-01T08:51:24;26.07;;;14.90;;
16031;SDS011;8120;48.308;8.914;2023-03-01T08:53:53;25.23;;;14.50;;
16031;SDS011;8120;48.308;8.914;2023-03-01T08:56:20;22.87;;;13.73;;
16031;SDS011;8120;48.308;8.914;2023-03-01T08:58:48;24.40;;;13.43;;
16031;SDS011;8120;48.308;8.914;2023-03-01T09:01:17;25.40;;;15.40;;
16031;SDS011;8120;48.308;8.914;2023-03-01T09:03:47;23.80;;;14.03;;
16031;SDS011;8120;48.308;8.914;2023-03-01T09:06:15;25.50;;;14.30;;
16031;SDS011;8120;48.308;8.914;2023-03-01T09:08:44;27.10;;;16.03;;
16031;SDS011;8120;48.308;8.914;2023-03-01T09:11:13;24.60;;;14.93;;
16031;SDS011;8120;48.308;8.914;2023-03-01T09:13:43;27.13;;;15.67;;
16031;SDS011;8120;48.308;8.914;2023-03-01T09:16:12;30.60;;;16.03;;
16031;SDS011;8120;48.308;8.914;2023-03-01T09:18:43;20.00;;;13.13;;
16031;SDS011;8120;48.308;8.914;2023-03-01T09:21:13;25.03;;;15.00;;
16031;SDS011;8120;48.308;8.914;2023-03-01T09:23:50;28.03;;;16.00;;
16031;SDS011;8120;48.308;8.914;2023-03-01T09:26:18;24.63;;;15.03;;
16031;SDS011;8120;48.308;8.914;2023-03-01T09:28:48;23.17;;;12.50;;
16031;SDS011;8120;48.308;8.914;2023-03-01T09:31:19;25.33;;;13.80;;
16031;SDS011;8120;48.308;8.914;2023-03-01T09:33:48;23.03;;;13.77;;
16031;SDS011;8120;48.308;8.914;2023-03-01T09:36:20;20.60;;;13.13;;
16031;SDS011;8120;48.308;8.914;2023-03-01T09:38:52;21.80;;;12.07;;
16031;SDS011;8120;48.308;8.914;2023-03-01T09:44:23;20.73;;;12.67;;
16031;SDS011;8120;48.308;8.914;2023-03-01T09:46:57;24.47;;;14.07;;
16031;SDS011;8120;48.308;8.914;2023-03-01T09:49:26;23.60;;;13.50;;
16031;SDS011;8120;48.308;8.914;2023-03-01T09:52:00;25.03;;;15.00;;
16031;SDS011;8120;48.308;8.914;2023-03-01T09:54:36;22.90;;;14.77;;
16031;SDS011;8120;48.308;8.914;2023-03-01T09:57:06;24.73;;;15.30;;
16031;SDS011;8120;48.308;8.914;2023-03-01T09:59:47;29.50;;;17.33;;
16031;SDS011;8120;48.308;8.914;2023-03-01T10:02:27;24.23;;;15.30;;
16031;SDS011;8120;48.308;8.914;2023-03-01T10:05:05;22.87;;;14.37;;
16031;SDS011;8120;48.308;8.914;2023-03-01T10:07:54;22.40;;;13.30;;
16031;SDS011;8120;48.308;8.914;2023-03-01T10:10:34;23.03;;;13.87;;
16031;SDS011;8120;48.308;8.914;2023-03-01T10:13:06;17.57;;;11.13;;
16031;SDS011;8120;48.308;8.914;2023-03-01T10:15:43;23.63;;;14.93;;
16031;SDS011;8120;48.308;8.914;2023-03-01T10:18:18;22.63;;;13.83;;
16031;SDS011;8120;48.308;8.914;2023-03-01T10:20:51;23.50;;;14.47;;
16031;SDS011;8120;48.308;8.914;2023-03-01T10:23:22;20.80;;;13.43;;
16031;SDS011;8120;48.308;8.914;2023-03-01T10:25:55;15.00;;;9.20;;
16031;SDS011;8120;48.308;8.914;2023-03-01T10:28:33;20.13;;;11.90;;
16031;SDS011;8120;48.308;8.914;2023-03-01T10:31:07;18.33;;;10.50;;
16031;SDS011;8120;48.308;8.914;2023-03-01T10:33:40;18.03;;;11.43;;
16031;SDS011;8120;48.308;8.914;2023-03-01T10:36:08;20.40;;;10.90;;
16031;SDS011;8120;48.308;8.914;2023-03-01T10:38:50;14.73;;;9.13;;
16031;SDS011;8120;48.308;8.914;2023-03-01T10:41:21;17.80;;;10.73;;
16031;SDS011;8120;48.308;8.914;2023-03-01T10:43:51;18.80;;;10.57;;
16031;SDS011;8120;48.308;8.914;2023-03-01T10:46:23;17.03;;;11.63;;
16031;SDS011;8120;48.308;8.914;2023-03-01T10:49:05;16.63;;;10.70;;
16031;SDS011;8120;48.308;8.914;2023-03-01T10:51:34;22.87;;;11.50;;
16031;SDS011;8120;48.308;8.914;2023-03-01T10:54:04;20.77;;;12.47;;
16031;SDS011;8120;48.308;8.914;2023-03-01T10:56:47;19.53;;;12.53;;
16031;SDS011;8120;48.308;8.914;2023-03-01T10:59:20;21.63;;;12.87;;
16031;SDS011;8120;48.308;8.914;2023-03-01T11:02:01;21.50;;;12.07;;
16031;SDS011;8120;48.308;8.914;2023-03-01T11:04:58;18.23;;;11.00;;
16031;SDS011;8120;48.308;8.914;2023-03-01T11:07:27;18.93;;;11.67;;
16031;SDS011;8120;48.308;8.914;2023-03-01T11:09:57;19.57;;;11.67;;
16031;SDS011;8120;48.308;8.914;2023-03-01T11:12:25;21.20;;;12.97;;
16031;SDS011;8120;48.308;8.914;2023-03-01T11:14:55;14.37;;;9.80;;
16031;SDS011;8120;48.308;8.914;2023-03-01T11:17:25;14.83;;;8.43;;
16031;SDS011;8120;48.308;8.914;2023-03-01T11:20:02;14.53;;;9.60;;
16031;SDS011;8120;48.308;8.914;2023-03-01T11:22:44;15.93;;;8.10;;
16031;SDS011;8120;48.308;8.914;2023-03-01T11:25:16;20.63;;;10.47;;
16031;SDS011;8120;48.308;8.914;2023-03-01T11:27:46;16.73;;;9.10;;
16031;SDS011;8120;48.308;8.914;2023-03-01T11:30:15;13.50;;;8.40;;
16031;SDS011;8120;48.308;8.914;2023-03-01T11:32:50;20.63;;;10.63;;
16031;SDS011;8120;48.308;8.914;2023-03-01T11:35:32;17.13;;;9.63;;
16031;SDS011;8120;48.308;8.914;2023-03-01T11:38:06;19.80;;;11.20;;
16031;SDS011;8120;48.308;8.914;2023-03-01T11:40:46;16.23;;;8.97;;
16031;SDS011;8120;48.308;8.914;2023-03-01T11:43:23;17.67;;;10.47;;
16031;SDS011;8120;48.308;8.914;2023-03-01T11:46:26;26.87;;;12.90;;
16031;SDS011;8120;48.308;8.914;2023-03-01T11:49:17;15.43;;;8.53;;
16031;SDS011;8120;48.308;8.914;2023-03-01T11:52:07;16.00;;;7.30;;
16031;SDS011;8120;48.308;8.914;2023-03-01T11:54:49;16.57;;;10.30;;
16031;SDS011;8120;48.308;8.914;2023-03-01T11:57:31;19.17;;;11.87;;
16031;SDS011;8120;48.308;8.914;2023-03-01T12:06:04;23.67;;;11.10;;
16031;SDS011;8120;48.308;8.914;2023-03-01T12:08:52;23.67;;;11.70;;
16031;SDS011;8120;48.308;8.914;2023-03-01T12:11:41;15.00;;;9.77;;
16031;SDS011;8120;48.308;8.914;2023-03-01T12:14:26;19.40;;;9.33;;
16031;SDS011;8120;48.308;8.914;2023-03-01T12:17:11;20.27;;;12.43;;
16031;SDS011;8120;48.308;8.914;2023-03-01T12:20:12;18.17;;;9.97;;
16031;SDS011;8120;48.308;8.914;2023-03-01T12:22:59;15.47;;;10.10;;
16031;SDS011;8120;48.308;8.914;2023-03-01T12:25:46;20.13;;;11.63;;
16031;SDS011;8120;48.308;8.914;2023-03-01T12:28:24;20.90;;;12.30;;
16031;SDS011;8120;48.308;8.914;2023-03-01T12:31:16;20.53;;;12.67;;
16031;SDS011;8120;48.308;8.914;2023-03-01T12:34:01;17.07;;;9.83;;
16031;SDS011;8120;48.308;8.914;2023-03-01T12:36:42;19.27;;;11.93;;
16031;SDS011;8120;48.308;8.914;2023-03-01T12:39:23;17.43;;;10.93;;
16031;SDS011;8120;48.308;8.914;2023-03-01T12:42:07;21.10;;;12.53;;
16031;SDS011;8120;48.308;8.914;2023-03-01T12:44:47;17.87;;;10.97;;
16031;SDS011;8120;48.308;8.914;2023-03-01T12:47:41;18.27;;;9.90;;
16031;SDS011;8120;48.308;8.914;2023-03-01T12:50:23;18.23;;;10.83;;
16031;SDS011;8120;48.308;8.914;2023-03-01T12:52:53;19.53;;;11.00;;
16031;SDS011;8120;48.308;8.914;2023-03-01T12:55:28;18.20;;;11.83;;
16031;SDS011;8120;48.308;8.914;2023-03-01T12:58:01;16.30;;;10.77;;
16031;SDS011;8120;48.308;8.914;2023-03-01T13:00:36;18.67;;;11.20;;
16031;SDS011;8120;48.308;8.914;2023-03-01T13:03:12;17.10;;;11.30;;
16031;SDS011;8120;48.308;8.914;2023-03-01T13:05:54;16.30;;;10.40;;
16031;SDS011;8120;48.308;8.914;2023-03-01T13:08:35;18.40;;;11.40;;
16031;SDS011;8120;48.308;8.914;2023-03-01T13:11:12;14.57;;;10.10;;
16031;SDS011;8120;48.308;8.914;2023-03-01T13:13:44;16.97;;;11.07;;
16031;SDS011;8120;48.308;8.914;2023-03-01T13:16:22;17.60;;;10.17;;
16031;SDS011;8120;48.308;8.914;2023-03-01T13:19:11;19.40;;;11.83;;
16031;SDS011;8120;48.308;8.914;2023-03-01T13:21:42;18.00;;;11.30;;
16031;SDS011;8120;48.308;8.914;2023-03-01T13:24:23;18.57;;;11.93;;
16031;SDS011;8120;48.308;8.914;2023-03-01T13:29:43;16.77;;;10.83;;
16031;SDS011;8120;48.308;8.914;2023-03-01T13:32:22;20.67;;;12.10;;
16031;SDS011;8120;48.308;8.914;2023-03-01T13:41:09;16.93;;;11.53;;
16031;SDS011;8120;48.308;8.914;2023-03-01T13:43:37;17.33;;;11.27;;
16031;SDS011;8120;48.308;8.914;2023-03-01T13:46:08;17.60;;;10.70;;
16031;SDS011;8120;48.308;8.914;2023-03-01T13:48:39;18.17;;;10.80;;
16031;SDS011;8120;48.308;8.914;2023-03-01T13:51:08;16.47;;;10.27;;
16031;SDS011;8120;48.308;8.914;2023-03-01T13:53:39;15.83;;;9.33;;
16031;SDS011;8120;48.308;8.914;2023-03-01T13:56:11;18.43;;;11.17;;
16031;SDS011;8120;48.308;8.914;2023-03-01T13:58:44;19.97;;;11.47;;
16031;SDS011;8120;48.308;8.914;2023-03-01T14:01:26;20.27;;;12.03;;
16031;SDS011;8120;48.308;8.914;2023-03-01T14:03:56;20.63;;;11.47;;
16031;SDS011;8120;48.308;8.914;2023-03-01T14:06:25;16.60;;;10.73;;
16031;SDS011;8120;48.308;8.914;2023-03-01T14:09:01;17.83;;;9.90;;
16031;SDS011;8120;48.308;8.914;2023-03-01T14:14:44;17.30;;;9.87;;
16031;SDS011;8120;48.308;8.914;2023-03-01T14:17:19;18.83;;;10.60;;
16031;SDS011;8120;48.308;8.914;2023-03-01T14:20:11;17.67;;;10.77;;
16031;SDS011;8120;48.308;8.914;2023-03-01T14:22:43;22.07;;;11.30;;
16031;SDS011;8120;48.308;8.914;2023-03-01T14:25:17;13.80;;;8.87;;
16031;SDS011;8120;48.308;8.914;2023-03-01T14:27:54;17.67;;;11.37;;
16031;SDS011;8120;48.308;8.914;2023-03-01T14:30:25;16.17;;;10.80;;
16031;SDS011;8120;48.308;8.914;2023-03-01T14:32:57;15.87;;;11.07;;
16031;SDS011;8120;48.308;8.914;2023-03-01T14:35:27;17.03;;;10.70;;
16031;SDS011;8120;48.308;8.914;2023-03-01T14:37:57;15.83;;;10.43;;
16031;SDS011;8120;48.308;8.914;2023-03-01T14:40:26;17.53;;;10.63;;
16031;SDS011;8120;48.308;8.914;2023-03-01T14:42:59;14.67;;;10.07;;
16031;SDS011;8120;48.308;8.914;2023-03-01T14:45:29;15.67;;;10.30;;
16031;SDS011;8120;48.308;8.914;2023-03-01T14:47:58;17.70;;;10.93;;
16031;SDS011;8120;48.308;8.914;2023-03-01T14:50:28;17.30;;;11.20;;
16031;SDS011;8120;48.308;8.914;2023-03-01T14:52:58;16.37;;;11.37;;
16031;SDS011;8120;48.308;8.914;2023-03-01T14:55:30;16.03;;;10.53;;
16031;SDS011;8120;48.308;8.914;2023-03-01T14:58:03;17.40;;;9.67;;
16031;SDS011;8120;48.308;8.914;2023-03-01T15:00:33;12.63;;;7.60;;
16031;SDS011;8120;48.308;8.914;2023-03-01T15:03:04;14.67;;;7.50;;
16031;SDS011;8120;48.308;8.914;2023-03-01T15:05:39;15.40;;;9.63;;
16031;SDS011;8120;48.308;8.914;2023-03-01T15:08:11;15.07;;;9.73;;
16031;SDS011;8120;48.308;8.914;2023-03-01T15:10:55;17.73;;;10.83;;
16031;SDS011;8120;48.308;8.914;2023-03-01T15:13:29;14.50;;;9.90;;
16031;SDS011;8120;48.308;8.914;2023-03-01T15:16:06;14.53;;;8.93;;
16031;SDS011;8120;48.308;8.914;2023-03-01T15:18:36;15.90;;;9.27;;
16031;SDS011;8120;48.308;8.914;2023-03-01T15:21:13;14.57;;;9.77;;
16031;SDS011;8120;48.308;8.914;2023-03-01T15:23:47;18.43;;;11.97;;
16031;SDS011;8120;48.308;8.914;2023-03-01T15:26:24;18.57;;;11.57;;
16031;SDS011;8120;48.308;8.914;2023-03-01T15:28:57;14.87;;;10.23;;